Aeroporto :
LOGIN :

Iscrizione | Disclaimer

   EN    FR    IT 

 










Sommario :    VFR   VFR Marginale   IFR   IFR Intensivo   IFR Molto Intensivo
Visibilità : 
Base nubi : 
>= 8 km
>= 3000ft
5 / 8 km
1000 / 3000 ft
1500m / 5 km
500 / 1000 ft
800 / 1500m
200 / 500 ft
< 800m
< 200 ft
Simboli :   Temporali  Nebbia  Neve Forte  Precipitazioni Forti  Vento > 20 kt
SIGMETs :   Varie  Temporali  Ghiacco  Turbolenza  Onda orograficha  Ceneri Vulcaniche






- Altitudine del aeroporto : 122 ft
- Codice IATA : TXL


EDDT - Berlin Tegel Int.

ULTIMO METAR :
  • 201350Z 31003KT 280V340 7000 BKN004 05/05 Q1017 TEMPO BKN005

METARs OBSOLETI :
  • 201320Z 35003KT 270V070 8000 BKN004 05/05 Q1017 TEMPO BKN005
  • 201250Z 34004KT 290V020 8000 BKN004 BKN006 06/04 Q1017 TEMPO BKN005
  • 201220Z VRB02KT 8000 BKN004 BKN006 05/05 Q1018 TEMPO BKN005
  • 201150Z 29003KT 250V320 8000 -DZ BKN004 05/05 Q1018 TEMPO BKN005
  • 201120Z 29003KT 260V320 8000 BKN004 05/05 Q1018 TEMPO BKN005

TAF TAF EDDT
Valido dal 20 a 12 ore il 21 a 12 ore UTC


201100Z 2012/2112 32003KT 8000 BKN005
TEMPO 2012/2018 2500 -DZ BKN004
BECMG 2018/2020 03005KT 3000 BR BKN003
TEMPO 2020/2109 2000 -DZ



MetMap, La meteo Aeronautica in un colpo d'occhio ! - Copyright ORBIFLY Dicembre 2007 - Disclaimer

ORBIFLY MET'MAP TEAM :

Programmazione e sviluppo : Alexandra Zaïnal
Concezione e sviluppo : Baudouin d'Aumeries
Co-Programmazione e sviluppo : Marc-Olivier Méhu
Supporto tecnico e logistico : Manuel Goepfert
Aiuto per la traduzione : Arnaldo La Scala

Contatto : metmap@orbifly.com




FONTI E CREDITI :

   NOAA